createdAt,value
2019-05-20T13:15:21.466Z,27.27
2019-05-20T13:17:50.105Z,28.30
2019-05-20T13:20:19.027Z,27.27
2019-05-20T13:22:47.673Z,27.57
2019-05-20T13:25:16.509Z,28.37
2019-05-20T13:27:45.127Z,28.67
2019-05-20T13:30:14.157Z,28.60
2019-05-20T13:32:42.844Z,28.77
2019-05-20T13:35:11.758Z,30.20
2019-05-20T13:37:40.583Z,29.40
2019-05-20T13:40:10.633Z,28.40
2019-05-20T13:42:39.309Z,27.47
2019-05-20T13:45:09.359Z,28.87
2019-05-20T13:47:38.115Z,27.87
2019-05-20T13:50:10.667Z,27.87
2019-05-20T13:52:39.363Z,30.23
2019-05-20T13:55:08.715Z,29.33
2019-05-20T13:57:37.554Z,28.50
2019-05-20T14:00:10.102Z,28.57
2019-05-20T14:02:38.933Z,28.87
2019-05-20T14:05:07.731Z,27.90
2019-05-20T14:07:36.418Z,28.10
2019-05-20T14:10:08.443Z,26.43
2019-05-20T14:12:37.164Z,27.87
2019-05-20T14:15:09.049Z,28.17
2019-05-20T14:17:37.741Z,27.37
2019-05-20T14:20:08.052Z,27.87
2019-05-20T14:22:36.735Z,25.77
2019-05-20T14:25:09.954Z,26.13
2019-05-20T14:27:38.784Z,26.23
2019-05-20T14:30:09.595Z,27.07
2019-05-20T14:32:38.269Z,26.30
2019-05-20T14:35:07.324Z,26.77
2019-05-20T14:37:36.022Z,27.60
2019-05-20T14:40:07.183Z,28.33
2019-05-20T14:42:36.019Z,29.63
2019-05-20T14:45:05.976Z,32.33
2019-05-20T14:47:34.654Z,30.00
2019-05-20T14:50:04.724Z,28.13
2019-05-20T14:52:33.384Z,29.67
2019-05-20T14:55:02.019Z,28.87
2019-05-20T14:57:30.699Z,27.77
2019-05-20T14:59:59.324Z,27.53
2019-05-20T15:02:30.843Z,27.70
2019-05-20T15:04:58.281Z,29.60
2019-05-20T15:07:30.585Z,27.30
2019-05-20T15:09:57.395Z,27.70
2019-05-20T15:12:26.082Z,27.90
2019-05-20T15:14:54.707Z,27.43
2019-05-20T15:17:23.329Z,27.67
2019-05-20T15:19:51.998Z,27.57
2019-05-20T15:22:20.764Z,27.10
2019-05-20T15:24:49.377Z,27.10
2019-05-20T15:27:18.137Z,27.10
2019-05-20T15:29:46.739Z,28.00
2019-05-20T15:32:15.436Z,29.13
2019-05-20T15:34:44.068Z,27.77
2019-05-20T15:37:12.925Z,28.40
2019-05-20T15:39:41.723Z,28.10
2019-05-20T15:42:10.489Z,28.90
2019-05-20T15:44:39.184Z,28.63
2019-05-20T15:47:07.931Z,27.57
2019-05-20T15:49:36.619Z,28.37
2019-05-20T15:52:05.240Z,27.90
2019-05-20T15:54:33.923Z,28.33
2019-05-20T15:57:02.533Z,28.60
2019-05-20T15:59:44.892Z,27.13
2019-05-20T16:02:01.552Z,28.20
2019-05-20T16:04:30.312Z,27.03
2019-05-20T16:07:00.365Z,27.63
2019-05-20T16:09:29.424Z,27.63
2019-05-20T16:11:58.123Z,27.77
2019-05-20T16:14:26.742Z,26.93
2019-05-20T16:16:55.486Z,27.50
2019-05-20T16:19:24.102Z,28.07
2019-05-20T16:21:52.778Z,28.30
2019-05-20T16:24:21.459Z,28.40
2019-05-20T16:26:50.275Z,28.70
2019-05-20T16:29:18.906Z,30.07
2019-05-20T16:31:47.727Z,28.43
2019-05-20T16:34:16.348Z,29.50
2019-05-20T16:36:45.159Z,29.63
2019-05-20T16:39:13.914Z,30.07
2019-05-20T16:41:42.533Z,29.13
2019-05-20T16:44:11.287Z,30.83
2019-05-20T16:46:42.831Z,29.00
2019-05-20T16:49:11.498Z,29.80
2019-05-20T16:51:40.328Z,30.23
2019-05-20T16:54:08.942Z,31.43
2019-05-20T16:56:37.634Z,33.63
2019-05-20T16:59:06.321Z,32.00
2019-05-20T17:01:45.941Z,32.03
2019-05-20T17:04:05.406Z,32.73
2019-05-20T17:06:34.071Z,33.10
2019-05-20T17:09:02.944Z,33.77
2019-05-20T17:11:31.629Z,33.20
2019-05-20T17:14:00.582Z,32.10
2019-05-20T17:16:29.383Z,32.37
2019-05-20T17:18:58.008Z,32.37
2019-05-20T17:21:26.763Z,33.30
2019-05-20T17:23:55.589Z,33.83
2019-05-20T17:26:24.202Z,34.87
2019-05-20T17:28:52.886Z,34.63
2019-05-20T17:31:21.504Z,34.37
2019-05-20T17:33:50.260Z,34.10
2019-05-20T17:36:19.005Z,33.17
2019-05-20T17:38:47.664Z,33.93
2019-05-20T17:41:16.436Z,33.83
2019-05-20T17:43:45.137Z,34.70
2019-05-20T17:46:14.295Z,34.00
2019-05-20T17:48:43.057Z,32.47
2019-05-20T17:51:11.959Z,32.80
2019-05-20T17:53:40.770Z,33.97
2019-05-20T17:56:09.562Z,34.90
2019-05-20T17:58:38.316Z,33.57
2019-05-20T18:01:15.437Z,32.23
2019-05-20T18:03:37.324Z,34.13
2019-05-20T18:06:06.153Z,33.00
2019-05-20T18:08:36.418Z,34.20
2019-05-20T18:11:05.262Z,33.70
2019-05-20T18:13:33.871Z,36.07
2019-05-20T18:16:02.621Z,35.20
2019-05-20T18:18:31.236Z,33.27
2019-05-20T18:20:59.875Z,34.90
2019-05-20T18:23:28.610Z,34.10
2019-05-20T18:25:57.238Z,34.63
2019-05-20T18:28:26.071Z,34.90
2019-05-20T18:30:54.751Z,34.63
2019-05-20T18:33:23.440Z,34.00
2019-05-20T18:35:52.058Z,34.40
2019-05-20T18:38:20.675Z,33.23
2019-05-20T18:40:49.493Z,34.27
2019-05-20T18:43:19.461Z,34.07
2019-05-20T18:45:48.205Z,35.23
2019-05-20T18:48:17.026Z,34.63
2019-05-20T18:50:45.801Z,35.57
2019-05-20T18:53:14.547Z,36.47
2019-05-20T18:55:43.470Z,36.07
2019-05-20T18:58:12.164Z,35.70
2019-05-20T19:00:40.856Z,35.77
2019-05-20T19:03:09.518Z,35.57
2019-05-20T19:05:38.222Z,34.47
2019-05-20T19:08:06.904Z,34.37
2019-05-20T19:10:35.708Z,33.53
2019-05-20T19:13:04.722Z,34.60
2019-05-20T19:15:33.472Z,34.90
2019-05-20T19:18:02.284Z,34.47
2019-05-20T19:20:30.974Z,34.93
2019-05-20T19:22:59.591Z,34.90
2019-05-20T19:25:37.396Z,36.23
2019-05-20T19:27:58.557Z,35.37
2019-05-20T19:30:27.338Z,37.57
2019-05-20T19:32:55.949Z,34.90
2019-05-20T19:35:24.775Z,36.03
2019-05-20T19:37:53.411Z,32.87
2019-05-20T19:40:22.080Z,35.40
2019-05-20T19:42:50.703Z,36.90
2019-05-20T19:45:19.444Z,37.33
2019-05-20T19:47:48.128Z,36.73
2019-05-20T19:50:16.903Z,35.67
2019-05-20T19:52:45.812Z,34.77
2019-05-20T19:55:18.450Z,35.37
2019-05-20T19:57:44.803Z,34.73
2019-05-20T20:00:13.888Z,37.13
2019-05-20T20:02:43.007Z,34.43
2019-05-20T20:05:12.150Z,35.73
2019-05-20T20:07:40.888Z,32.47
2019-05-20T20:10:09.786Z,33.80
2019-05-20T20:12:38.408Z,34.83
2019-05-20T20:15:08.209Z,34.73
2019-05-20T20:17:36.949Z,33.67
2019-05-20T20:20:06.534Z,33.30
2019-05-20T20:22:35.395Z,32.23
2019-05-20T20:25:05.650Z,32.20
2019-05-20T20:27:34.339Z,32.77
2019-05-20T20:30:04.002Z,31.40
2019-05-20T20:32:38.002Z,31.13
2019-05-20T20:35:03.690Z,31.87
2019-05-20T20:37:32.376Z,33.27
2019-05-20T20:40:00.995Z,32.33
2019-05-20T20:42:29.672Z,31.53
2019-05-20T20:44:58.360Z,31.03
2019-05-20T20:47:40.754Z,30.77
2019-05-20T20:49:57.432Z,31.80
2019-05-20T20:52:26.104Z,30.37
2019-05-20T20:54:54.734Z,30.83
2019-05-20T20:57:23.355Z,30.00
2019-05-20T20:59:52.036Z,30.70
2019-05-20T21:02:20.648Z,29.70
2019-05-20T21:04:49.329Z,30.17
2019-05-20T21:07:18.082Z,30.03
2019-05-20T21:09:46.695Z,28.93
2019-05-20T21:12:15.457Z,29.60
2019-05-20T21:14:44.074Z,30.07
2019-05-20T21:17:12.862Z,29.50
2019-05-20T21:19:41.576Z,29.87
2019-05-20T21:22:10.395Z,29.73
2019-05-20T21:24:39.128Z,28.80
2019-05-20T21:27:07.900Z,30.80
2019-05-20T21:29:36.648Z,29.80
2019-05-20T21:32:05.619Z,29.90
2019-05-20T21:34:34.472Z,29.70
2019-05-20T21:37:03.170Z,31.70
2019-05-20T21:39:32.455Z,32.17
2019-05-20T21:42:01.080Z,32.23
2019-05-20T21:44:30.075Z,32.83
2019-05-20T21:46:58.697Z,32.67
2019-05-20T21:49:28.414Z,35.27
2019-05-20T21:51:57.362Z,32.23
2019-05-20T21:54:26.066Z,35.10
2019-05-20T21:56:54.814Z,37.33
2019-05-20T21:59:23.573Z,37.40
2019-05-20T22:01:52.349Z,34.20
2019-05-20T22:04:21.083Z,39.13
2019-05-20T22:06:49.927Z,36.80
2019-05-20T22:09:18.541Z,37.30
2019-05-20T22:11:47.284Z,37.83
2019-05-20T22:14:15.971Z,38.67
2019-05-20T22:16:44.717Z,37.60
2019-05-20T22:19:13.472Z,36.37
2019-05-20T22:21:50.601Z,37.87
2019-05-20T22:24:19.217Z,36.87
2019-05-20T22:26:48.123Z,35.93
2019-05-20T22:29:16.744Z,38.23
2019-05-20T22:31:45.422Z,36.67
2019-05-20T22:34:14.115Z,35.37
2019-05-20T22:36:42.903Z,37.77
2019-05-20T22:39:11.713Z,37.10
2019-05-20T22:41:40.487Z,34.77
2019-05-20T22:44:09.171Z,36.33
2019-05-20T22:46:37.767Z,37.10
2019-05-20T22:49:06.526Z,40.03
2019-05-20T22:51:35.165Z,39.60
2019-05-20T22:54:03.981Z,40.23
2019-05-20T22:56:32.831Z,40.50
2019-05-20T22:59:04.680Z,37.17
2019-05-20T23:01:33.295Z,38.03
2019-05-20T23:04:01.990Z,40.30
2019-05-20T23:06:30.798Z,40.50
2019-05-20T23:08:59.472Z,40.53
2019-05-20T23:11:28.138Z,42.17
2019-05-20T23:13:56.764Z,40.07
2019-05-20T23:16:25.446Z,43.07
2019-05-20T23:18:54.089Z,45.57
2019-05-20T23:21:22.820Z,47.93
2019-05-20T23:23:51.555Z,47.73
2019-05-20T23:26:20.168Z,46.27
2019-05-20T23:28:48.915Z,51.87
2019-05-20T23:31:17.604Z,48.80
2019-05-20T23:33:46.275Z,47.03
2019-05-20T23:36:14.979Z,46.23
2019-05-20T23:38:43.731Z,47.37
2019-05-20T23:41:12.347Z,46.57
2019-05-20T23:43:41.031Z,50.50
2019-05-20T23:46:09.708Z,50.33
2019-05-20T23:48:38.380Z,53.17
2019-05-20T23:51:07.003Z,48.87
2019-05-20T23:53:35.663Z,50.83
2019-05-20T23:56:04.528Z,52.47
2019-05-20T23:58:33.201Z,50.33
